createdAt,value
2022-12-09T00:01:22.024Z,12.30
2022-12-09T00:03:24.458Z,13.33
2022-12-09T00:05:28.885Z,15.63
2022-12-09T00:07:31.355Z,17.53
2022-12-09T00:09:33.893Z,17.73
2022-12-09T00:11:36.089Z,16.00
2022-12-09T00:13:38.472Z,14.87
2022-12-09T00:15:42.663Z,14.60
2022-12-09T00:17:45.204Z,13.73
2022-12-09T00:19:47.406Z,16.97
2022-12-09T00:21:49.398Z,14.87
2022-12-09T00:23:53.147Z,15.10
2022-12-09T00:25:58.483Z,12.87
2022-12-09T00:28:00.625Z,11.87
2022-12-09T00:30:03.172Z,11.03
2022-12-09T00:32:05.729Z,12.03
2022-12-09T00:34:11.057Z,17.23
2022-12-09T00:36:18.427Z,40.77
2022-12-09T00:38:20.407Z,57.13
2022-12-09T00:40:22.602Z,47.40
2022-12-09T00:42:25.207Z,32.97
2022-12-09T00:44:28.369Z,39.10
2022-12-09T00:46:30.612Z,38.50
2022-12-09T00:48:34.887Z,42.47
2022-12-09T00:50:37.013Z,29.83
2022-12-09T00:52:39.350Z,45.40
2022-12-09T00:54:42.882Z,28.27
2022-12-09T00:56:45.411Z,24.37
2022-12-09T00:58:48.074Z,31.27
2022-12-09T01:00:51.200Z,24.57
2022-12-09T01:02:53.308Z,22.80
2022-12-09T01:04:56.555Z,23.47
2022-12-09T01:06:59.178Z,30.13
2022-12-09T01:09:04.158Z,36.77
2022-12-09T01:11:11.876Z,43.70
2022-12-09T01:13:15.385Z,37.27
2022-12-09T01:15:17.512Z,34.43
2022-12-09T01:17:19.923Z,42.60
2022-12-09T01:19:21.930Z,36.43
2022-12-09T01:21:25.023Z,39.83
2022-12-09T01:23:27.291Z,25.27
2022-12-09T01:25:29.794Z,29.03
2022-12-09T01:27:32.808Z,32.67
2022-12-09T01:29:35.622Z,40.37
2022-12-09T01:31:39.044Z,40.63
2022-12-09T01:33:44.737Z,42.60
2022-12-09T01:35:46.833Z,53.17
2022-12-09T01:37:49.016Z,71.30
2022-12-09T01:39:53.724Z,86.53
2022-12-09T01:41:56.102Z,88.67
2022-12-09T01:44:16.492Z,72.67
2022-12-09T01:46:18.668Z,63.37
2022-12-09T01:48:23.973Z,51.80
2022-12-09T01:51:30.413Z,41.63
2022-12-09T01:53:37.982Z,32.10
2022-12-09T01:55:41.587Z,27.83
2022-12-09T01:57:45.656Z,25.00
2022-12-09T01:59:47.860Z,25.60
2022-12-09T02:01:54.770Z,25.60
2022-12-09T02:03:57.079Z,23.27
2022-12-09T02:06:02.093Z,23.33
2022-12-09T02:08:07.743Z,25.77
2022-12-09T02:10:14.759Z,22.37
2022-12-09T02:12:41.706Z,18.80
2022-12-09T02:15:06.691Z,18.10
2022-12-09T02:17:26.327Z,19.60
2022-12-09T02:20:01.719Z,21.67
2022-12-09T02:22:06.985Z,25.93
2022-12-09T02:24:16.471Z,27.03
2022-12-09T02:26:31.079Z,26.17
2022-12-09T02:28:57.987Z,23.47
2022-12-09T02:31:16.221Z,21.03
2022-12-09T02:33:34.057Z,20.13
2022-12-09T02:35:44.002Z,21.50
2022-12-09T02:37:52.355Z,20.27
2022-12-09T02:39:59.615Z,20.20
2022-12-09T02:42:06.725Z,24.70
2022-12-09T02:44:19.497Z,22.57
2022-12-09T02:46:22.702Z,19.30
2022-12-09T02:48:32.348Z,19.47
2022-12-09T02:50:38.217Z,22.43
2022-12-09T02:52:42.816Z,28.00
2022-12-09T02:54:46.959Z,35.33
2022-12-09T02:56:57.069Z,34.10
2022-12-09T02:59:02.651Z,28.67
2022-12-09T03:01:05.162Z,25.83
2022-12-09T03:03:11.816Z,26.93
2022-12-09T03:05:26.212Z,23.47
2022-12-09T03:07:44.672Z,25.97
2022-12-09T03:09:52.982Z,22.80
2022-12-09T03:11:59.693Z,20.20
2022-12-09T03:14:13.216Z,23.23
2022-12-09T03:16:18.428Z,23.03
2022-12-09T03:18:21.738Z,23.30
2022-12-09T03:20:28.937Z,21.80
2022-12-09T03:22:35.534Z,22.77
2022-12-09T03:24:42.678Z,20.47
2022-12-09T03:26:46.654Z,23.67
2022-12-09T03:28:51.409Z,24.50
2022-12-09T03:30:55.466Z,23.87
2022-12-09T03:32:58.829Z,22.50
2022-12-09T03:35:21.940Z,21.67
2022-12-09T03:37:24.524Z,20.70
2022-12-09T03:39:32.323Z,23.53
2022-12-09T03:41:34.915Z,24.40
2022-12-09T03:43:43.313Z,27.07
2022-12-09T03:45:46.375Z,25.30
2022-12-09T03:47:55.067Z,40.10
2022-12-09T03:49:58.730Z,32.37
2022-12-09T03:52:10.673Z,28.90
2022-12-09T03:54:35.479Z,29.17
2022-12-09T03:56:45.527Z,27.30
2022-12-09T03:58:50.436Z,26.03
2022-12-09T04:00:53.007Z,25.00
2022-12-09T04:02:55.314Z,25.57
2022-12-09T04:04:57.930Z,23.70
2022-12-09T04:07:00.508Z,25.33
2022-12-09T04:09:03.733Z,24.00
2022-12-09T04:11:06.251Z,22.37
2022-12-09T04:13:08.556Z,23.70
2022-12-09T04:15:11.019Z,22.93
2022-12-09T04:17:13.445Z,23.10
2022-12-09T04:19:15.686Z,24.80
2022-12-09T04:21:17.875Z,27.87
2022-12-09T04:23:20.343Z,26.10
2022-12-09T04:25:24.017Z,26.83
2022-12-09T04:27:26.447Z,27.20
2022-12-09T04:29:31.378Z,26.03
2022-12-09T04:31:33.585Z,26.80
2022-12-09T04:33:35.887Z,26.57
2022-12-09T04:35:37.846Z,27.60
2022-12-09T04:37:40.348Z,27.67
2022-12-09T04:39:42.666Z,26.73
2022-12-09T04:41:44.807Z,30.43
2022-12-09T04:43:49.132Z,31.03
2022-12-09T04:45:51.705Z,33.63
2022-12-09T04:47:54.161Z,31.47
2022-12-09T04:49:57.073Z,29.70
2022-12-09T04:52:00.799Z,30.53
2022-12-09T04:54:03.118Z,30.83
2022-12-09T04:56:08.481Z,28.13
2022-12-09T04:58:10.911Z,26.13
2022-12-09T05:00:14.287Z,27.27
2022-12-09T05:02:17.177Z,25.77
2022-12-09T05:04:21.637Z,25.47
2022-12-09T05:06:24.521Z,24.83
2022-12-09T05:08:31.467Z,26.63
2022-12-09T05:10:34.672Z,25.70
2022-12-09T05:12:37.187Z,27.87
2022-12-09T05:14:39.502Z,30.60
2022-12-09T05:16:41.559Z,28.30
2022-12-09T05:18:45.545Z,28.00
2022-12-09T05:20:48.322Z,27.80
2022-12-09T05:22:51.988Z,26.83
2022-12-09T05:24:54.287Z,28.73
2022-12-09T05:26:56.601Z,28.30
2022-12-09T05:28:59.015Z,26.53
2022-12-09T05:31:03.132Z,27.17
2022-12-09T05:33:06.016Z,25.87
2022-12-09T05:35:08.804Z,27.13
2022-12-09T05:37:15.453Z,31.20
2022-12-09T05:39:18.230Z,29.73
2022-12-09T05:41:20.988Z,28.80
2022-12-09T05:43:23.322Z,30.67
2022-12-09T05:45:25.679Z,29.97
2022-12-09T05:47:29.983Z,27.73
2022-12-09T05:49:32.256Z,24.60
2022-12-09T05:51:34.675Z,25.67
2022-12-09T05:53:37.354Z,25.67
2022-12-09T05:55:42.345Z,26.93
2022-12-09T05:57:45.356Z,27.93
2022-12-09T05:59:48.121Z,27.70
2022-12-09T06:01:51.123Z,27.73
2022-12-09T06:03:54.776Z,29.47
2022-12-09T06:05:57.990Z,28.30
2022-12-09T06:08:03.753Z,28.67
2022-12-09T06:10:10.224Z,32.03
2022-12-09T06:12:15.918Z,38.03
2022-12-09T06:14:18.038Z,31.90
2022-12-09T06:16:21.670Z,29.67
2022-12-09T06:18:23.926Z,30.13
2022-12-09T06:20:27.082Z,29.00
2022-12-09T06:22:29.418Z,27.60
2022-12-09T06:24:34.582Z,34.53
2022-12-09T06:26:36.912Z,34.73
2022-12-09T06:28:38.967Z,33.50
2022-12-09T06:30:41.406Z,34.50
2022-12-09T06:32:43.793Z,33.00
2022-12-09T06:34:46.425Z,34.67
2022-12-09T06:36:48.635Z,32.00
2022-12-09T06:38:52.049Z,30.50
2022-12-09T06:40:54.369Z,29.63
2022-12-09T06:42:56.538Z,27.40
2022-12-09T06:44:58.797Z,27.47
2022-12-09T06:47:01.061Z,26.17
2022-12-09T06:49:03.700Z,25.77
2022-12-09T06:51:08.871Z,24.53
2022-12-09T06:53:11.358Z,24.80
2022-12-09T06:55:14.290Z,26.10
2022-12-09T06:57:16.626Z,26.27
2022-12-09T06:59:18.905Z,26.07
2022-12-09T07:01:23.858Z,28.30
2022-12-09T07:03:28.375Z,31.53
2022-12-09T07:05:32.348Z,30.20
2022-12-09T07:07:35.138Z,28.67
2022-12-09T07:09:40.553Z,28.43
2022-12-09T07:11:43.435Z,27.17
2022-12-09T07:13:48.562Z,24.73
2022-12-09T07:15:50.961Z,26.10
2022-12-09T07:17:53.512Z,26.60
2022-12-09T07:19:57.270Z,24.90
2022-12-09T07:22:02.443Z,22.53
2022-12-09T07:24:05.282Z,23.33
2022-12-09T07:26:08.810Z,22.20
2022-12-09T07:28:11.449Z,22.90
2022-12-09T07:30:14.213Z,21.17
2022-12-09T07:32:16.471Z,23.40
2022-12-09T07:34:19.326Z,25.10
2022-12-09T07:36:25.773Z,23.20
2022-12-09T07:38:28.564Z,25.13
2022-12-09T07:40:31.007Z,25.40
2022-12-09T07:42:33.101Z,24.60
2022-12-09T07:44:39.954Z,25.30
2022-12-09T07:46:42.198Z,24.60
2022-12-09T07:48:45.065Z,27.20
2022-12-09T07:50:47.398Z,31.70
2022-12-09T07:52:49.805Z,34.73
2022-12-09T07:54:55.211Z,33.87
2022-12-09T07:56:57.890Z,36.47
2022-12-09T07:59:00.282Z,33.47
2022-12-09T08:01:12.088Z,35.53
2022-12-09T08:03:14.743Z,33.17
2022-12-09T08:05:17.710Z,34.47
2022-12-09T08:07:20.385Z,30.83
2022-12-09T08:09:23.685Z,30.63
2022-12-09T08:11:28.494Z,28.60
2022-12-09T08:13:31.079Z,28.30
2022-12-09T08:15:33.480Z,26.77
2022-12-09T08:17:35.803Z,24.27
2022-12-09T08:19:38.797Z,24.00
2022-12-09T08:21:41.566Z,23.43
2022-12-09T08:23:44.981Z,23.93
2022-12-09T08:25:53.684Z,24.47
2022-12-09T08:27:55.800Z,25.87
2022-12-09T08:29:58.480Z,25.87
2022-12-09T08:32:00.880Z,24.00
2022-12-09T08:34:08.281Z,26.90
2022-12-09T08:36:22.403Z,27.27
2022-12-09T08:38:24.602Z,25.70
2022-12-09T08:40:27.039Z,25.43
2022-12-09T08:42:30.682Z,25.17
2022-12-09T08:44:32.992Z,29.57
2022-12-09T08:46:37.233Z,27.23
2022-12-09T08:48:41.802Z,26.27
2022-12-09T08:50:44.109Z,23.43
2022-12-09T08:52:46.447Z,24.07
2022-12-09T08:54:48.886Z,22.90
2022-12-09T08:56:55.255Z,22.60
2022-12-09T08:58:58.018Z,21.10
2022-12-09T09:01:00.530Z,19.93
2022-12-09T09:03:02.963Z,19.17
2022-12-09T09:05:05.588Z,19.03
2022-12-09T09:07:09.211Z,18.33
2022-12-09T09:09:15.210Z,19.73
2022-12-09T09:11:20.690Z,20.57
2022-12-09T09:13:23.801Z,18.97
2022-12-09T09:15:25.881Z,20.17
2022-12-09T09:17:28.216Z,20.20
2022-12-09T09:19:31.844Z,20.30
2022-12-09T09:21:34.693Z,19.27
2022-12-09T09:23:37.511Z,18.27
2022-12-09T09:25:46.299Z,22.77
2022-12-09T09:27:48.494Z,20.57
2022-12-09T09:29:50.963Z,20.30
2022-12-09T09:31:57.486Z,21.27
2022-12-09T09:34:00.009Z,22.60
2022-12-09T09:36:52.802Z,24.53
2022-12-09T09:38:56.735Z,24.10
2022-12-09T09:41:00.841Z,28.70
2022-12-09T09:43:03.577Z,27.03
2022-12-09T09:45:14.600Z,25.40
2022-12-09T09:47:39.754Z,26.83
2022-12-09T09:49:55.619Z,24.83
2022-12-09T09:52:03.764Z,26.47
2022-12-09T09:54:08.904Z,27.93
2022-12-09T09:56:19.840Z,28.13
2022-12-09T09:58:39.766Z,27.07
2022-12-09T10:01:07.363Z,28.73
2022-12-09T10:03:15.005Z,27.03
2022-12-09T10:05:36.230Z,25.53
2022-12-09T10:07:41.294Z,26.20
2022-12-09T10:10:04.206Z,28.70
2022-12-09T10:12:06.715Z,26.73
2022-12-09T10:14:20.348Z,25.65
2022-12-09T10:16:44.560Z,29.63
2022-12-09T10:19:04.073Z,29.70
2022-12-09T10:21:20.260Z,29.37
2022-12-09T10:23:26.346Z,30.47
2022-12-09T10:25:31.976Z,30.57
2022-12-09T10:27:41.952Z,30.30
2022-12-09T10:29:56.941Z,30.53
2022-12-09T10:31:59.510Z,29.43
2022-12-09T10:34:02.326Z,29.70
2022-12-09T10:36:06.388Z,31.03
2022-12-09T10:38:14.841Z,30.83
2022-12-09T10:40:25.660Z,30.17
2022-12-09T10:42:47.815Z,31.87
2022-12-09T10:46:17.250Z,31.42
2022-12-09T10:48:32.458Z,29.10
2022-12-09T10:50:37.280Z,32.03
2022-12-09T10:52:44.493Z,30.70
2022-12-09T10:54:48.336Z,32.20
2022-12-09T10:57:12.665Z,29.27
2022-12-09T10:59:17.986Z,31.85
2022-12-09T11:01:20.377Z,32.47
2022-12-09T11:03:42.452Z,31.95
2022-12-09T11:05:45.013Z,31.58
2022-12-09T11:07:50.168Z,30.63
2022-12-09T11:10:17.393Z,31.10
2022-12-09T11:12:40.092Z,28.88
2022-12-09T11:14:52.530Z,26.35
2022-12-09T11:17:16.563Z,24.13
2022-12-09T11:19:28.552Z,22.02
2022-12-09T11:21:36.909Z,20.58
2022-12-09T11:23:58.804Z,21.65
2022-12-09T11:26:07.728Z,17.67
2022-12-09T11:28:16.461Z,18.38
2022-12-09T11:30:25.110Z,17.85
2022-12-09T11:32:27.736Z,17.63
2022-12-09T11:34:30.848Z,21.05
2022-12-09T11:36:43.972Z,23.13
2022-12-09T11:38:49.961Z,24.92
2022-12-09T11:41:06.208Z,20.92
2022-12-09T11:43:08.479Z,20.15
2022-12-09T11:45:26.861Z,22.10
2022-12-09T11:50:22.767Z,30.80
2022-12-09T11:52:30.489Z,32.70
2022-12-09T11:54:40.478Z,32.92
2022-12-09T11:56:43.719Z,30.80
2022-12-09T11:58:51.547Z,28.50
2022-12-09T12:00:56.456Z,28.02
2022-12-09T12:03:12.216Z,25.88
2022-12-09T12:05:38.434Z,27.13
2022-12-09T12:07:57.977Z,26.45
2022-12-09T12:10:01.651Z,28.73
2022-12-09T12:12:13.832Z,30.10
2022-12-09T12:14:27.750Z,30.60
2022-12-09T12:16:54.692Z,29.03
2022-12-09T12:19:15.649Z,26.73
2022-12-09T12:21:20.603Z,21.67
2022-12-09T12:23:48.524Z,22.88
2022-12-09T12:26:09.149Z,22.10
2022-12-09T12:28:41.857Z,21.80
2022-12-09T12:31:11.762Z,23.33
2022-12-09T12:36:07.262Z,31.00
2022-12-09T12:38:51.459Z,37.33
2022-12-09T12:41:05.720Z,44.55
2022-12-09T12:43:53.808Z,42.63
2022-12-09T12:46:20.033Z,37.63
2022-12-09T12:48:37.973Z,36.78
2022-12-09T12:50:57.991Z,36.10
2022-12-09T12:53:23.913Z,31.25
2022-12-09T12:55:32.030Z,23.33
2022-12-09T12:57:49.248Z,18.42
2022-12-09T13:00:07.466Z,16.85
2022-12-09T13:02:30.497Z,15.88
2022-12-09T13:04:52.830Z,11.55
2022-12-09T13:07:06.287Z,9.98
2022-12-09T13:09:29.341Z,8.98
2022-12-09T13:12:05.682Z,9.35
2022-12-09T13:14:14.419Z,9.20
2022-12-09T13:16:41.413Z,10.55
2022-12-09T13:18:44.850Z,9.80
2022-12-09T13:20:49.097Z,10.93
2022-12-09T13:23:05.669Z,10.55
2022-12-09T13:25:44.767Z,10.73
2022-12-09T13:28:13.126Z,10.05
2022-12-09T13:30:27.349Z,10.30
2022-12-09T13:32:56.518Z,11.57
2022-12-09T13:35:12.377Z,15.20
2022-12-09T13:37:54.799Z,15.52
2022-12-09T13:39:58.777Z,11.38
2022-12-09T13:42:19.501Z,14.38
2022-12-09T13:44:21.797Z,18.42
2022-12-09T13:46:28.635Z,19.38
2022-12-09T13:48:30.804Z,21.98
2022-12-09T13:50:49.577Z,17.63
2022-12-09T13:52:55.025Z,17.15
2022-12-09T13:54:58.000Z,17.40
2022-12-09T13:57:19.242Z,18.40
2022-12-09T13:59:30.925Z,18.30
2022-12-09T14:01:58.715Z,16.70
2022-12-09T14:04:18.822Z,21.88
2022-12-09T14:06:46.811Z,20.90
2022-12-09T14:08:53.564Z,19.02
2022-12-09T14:10:55.781Z,16.63
2022-12-09T14:12:57.730Z,12.73
2022-12-09T14:15:25.320Z,11.25
2022-12-09T14:17:27.192Z,11.05
2022-12-09T14:19:30.136Z,12.25
2022-12-09T14:21:33.635Z,18.73
2022-12-09T14:23:35.693Z,22.73
2022-12-09T14:25:37.501Z,20.77
2022-12-09T14:27:39.573Z,22.95
2022-12-09T14:29:50.910Z,30.00
2022-12-09T14:31:55.848Z,29.55
2022-12-09T14:33:57.819Z,25.02
2022-12-09T14:36:23.541Z,25.27
2022-12-09T14:39:07.991Z,22.35
2022-12-09T14:41:12.666Z,37.70
2022-12-09T14:43:33.276Z,42.15
2022-12-09T14:53:24.096Z,61.90
2022-12-09T14:55:30.065Z,73.95
2022-12-09T14:57:44.134Z,71.38
2022-12-09T14:59:51.832Z,70.85
2022-12-09T15:01:59.886Z,66.68
2022-12-09T15:04:02.156Z,53.53
2022-12-09T15:06:11.699Z,53.17
2022-12-09T15:08:32.076Z,87.47
2022-12-09T15:10:38.086Z,77.40
2022-12-09T15:12:43.170Z,76.25
2022-12-09T15:14:46.517Z,93.30
2022-12-09T15:16:50.956Z,90.95
2022-12-09T15:18:54.803Z,113.20
2022-12-09T15:21:01.680Z,109.47
2022-12-09T15:23:29.703Z,101.30
2022-12-09T15:25:34.038Z,98.68
2022-12-09T15:27:36.195Z,101.28
2022-12-09T15:29:38.076Z,98.45
2022-12-09T15:31:47.857Z,96.95
2022-12-09T15:33:53.122Z,72.60
2022-12-09T15:36:11.623Z,79.07
2022-12-09T15:38:13.747Z,80.45
2022-12-09T15:40:19.200Z,85.53
2022-12-09T15:42:27.383Z,92.78
2022-12-09T15:44:46.718Z,67.20
2022-12-09T15:46:52.033Z,65.00
2022-12-09T15:48:59.626Z,69.75
2022-12-09T15:51:07.934Z,56.22
2022-12-09T15:53:31.198Z,59.30
2022-12-09T15:55:38.037Z,106.20
2022-12-09T15:57:42.222Z,79.43
2022-12-09T15:59:55.453Z,70.45
2022-12-09T16:01:59.903Z,75.38
2022-12-09T16:04:06.553Z,100.70
2022-12-09T16:06:09.772Z,112.83
2022-12-09T16:08:12.245Z,89.72
2022-12-09T16:10:16.832Z,120.05
2022-12-09T16:12:29.008Z,113.25
2022-12-09T16:14:44.674Z,82.45
2022-12-09T16:17:01.729Z,77.22
2022-12-09T16:19:03.737Z,62.67
2022-12-09T16:21:28.005Z,71.95
2022-12-09T16:23:30.259Z,68.00
2022-12-09T16:25:38.822Z,90.93
2022-12-09T16:27:48.658Z,81.43
2022-12-09T16:29:54.310Z,72.35
2022-12-09T16:32:18.278Z,69.25
2022-12-09T16:34:22.167Z,65.20
2022-12-09T16:36:31.053Z,75.07
2022-12-09T16:38:37.264Z,62.85
2022-12-09T16:40:45.266Z,60.60
2022-12-09T16:42:49.206Z,61.00
2022-12-09T16:44:51.203Z,65.47
2022-12-09T16:47:27.944Z,62.08
2022-12-09T16:49:30.162Z,62.70
2022-12-09T16:51:34.997Z,55.08
2022-12-09T16:53:46.300Z,61.10
2022-12-09T16:55:59.970Z,85.28
2022-12-09T16:58:02.472Z,57.47
2022-12-09T17:00:05.988Z,46.10
2022-12-09T17:02:24.179Z,39.97
2022-12-09T17:04:28.968Z,45.30
2022-12-09T17:06:31.016Z,37.78
2022-12-09T17:08:33.503Z,32.88
2022-12-09T17:10:35.825Z,51.88
2022-12-09T17:12:38.090Z,49.40
2022-12-09T17:14:40.229Z,42.50
2022-12-09T17:16:42.670Z,31.80
2022-12-09T17:18:44.558Z,41.58
2022-12-09T17:20:46.673Z,87.40
2022-12-09T17:22:48.750Z,66.78
2022-12-09T17:24:50.853Z,80.20
2022-12-09T17:26:52.823Z,86.13
2022-12-09T17:29:01.270Z,76.65
2022-12-09T17:31:12.647Z,76.53
2022-12-09T17:33:14.544Z,88.65
2022-12-09T17:35:16.797Z,69.78
2022-12-09T17:37:19.205Z,49.17
2022-12-09T17:39:22.184Z,84.30
2022-12-09T17:41:24.340Z,80.18
2022-12-09T17:43:26.512Z,75.10
2022-12-09T17:45:28.503Z,58.88
2022-12-09T17:47:30.622Z,57.17
2022-12-09T17:49:33.127Z,57.20
2022-12-09T17:51:36.537Z,58.80
2022-12-09T17:53:40.322Z,60.88
2022-12-09T17:55:42.747Z,43.33
2022-12-09T17:57:47.689Z,79.50
2022-12-09T17:59:53.459Z,65.78
2022-12-09T18:01:55.750Z,63.22
2022-12-09T18:04:04.407Z,50.72
2022-12-09T18:06:09.986Z,38.95
2022-12-09T18:08:14.018Z,47.08
2022-12-09T18:10:16.273Z,28.70
2022-12-09T18:12:20.736Z,25.83
2022-12-09T18:14:23.520Z,26.70
2022-12-09T18:16:25.811Z,24.33
2022-12-09T18:18:30.696Z,20.20
2022-12-09T18:20:33.203Z,13.85
2022-12-09T18:22:35.389Z,12.00
2022-12-09T18:24:37.398Z,12.13
2022-12-09T18:26:42.273Z,11.20
2022-12-09T18:28:44.665Z,8.25
2022-12-09T18:30:47.010Z,6.25
2022-12-09T18:32:49.373Z,5.38
2022-12-09T18:34:51.506Z,8.52
2022-12-09T18:36:54.297Z,10.88
2022-12-09T18:38:59.586Z,8.30
2022-12-09T18:41:01.550Z,6.28
2022-12-09T18:43:03.791Z,9.52
2022-12-09T18:45:06.225Z,6.88
2022-12-09T18:47:08.472Z,8.38
2022-12-09T18:49:16.430Z,9.38
2022-12-09T18:51:20.893Z,6.28
2022-12-09T18:53:23.354Z,4.93
2022-12-09T18:55:25.598Z,5.47
2022-12-09T18:57:30.718Z,5.25
2022-12-09T18:59:33.696Z,4.63
2022-12-09T19:01:41.103Z,6.50
2022-12-09T19:03:43.700Z,4.85
2022-12-09T19:05:45.728Z,4.80
2022-12-09T19:07:47.921Z,4.28
2022-12-09T19:09:49.990Z,5.35
2022-12-09T19:11:53.483Z,5.85
2022-12-09T19:13:56.475Z,7.65
2022-12-09T19:16:03.324Z,5.22
2022-12-09T19:18:05.483Z,13.88
2022-12-09T19:20:08.416Z,7.28
2022-12-09T19:22:10.703Z,6.15
2022-12-09T19:24:19.071Z,6.40
2022-12-09T19:26:24.671Z,5.60
2022-12-09T19:28:26.761Z,11.02
2022-12-09T19:30:29.231Z,11.32
2022-12-09T19:32:52.343Z,13.45
2022-12-09T19:34:53.549Z,9.95
2022-12-09T19:36:58.838Z,13.50
2022-12-09T19:39:02.654Z,15.02
2022-12-09T19:41:04.989Z,15.93
2022-12-09T19:43:07.372Z,14.35
2022-12-09T19:45:13.969Z,11.52
2022-12-09T19:47:17.251Z,8.10
2022-12-09T19:49:20.969Z,4.82
2022-12-09T19:51:24.413Z,3.28
2022-12-09T19:53:26.398Z,4.47
2022-12-09T19:55:28.448Z,7.57
2022-12-09T19:57:30.644Z,14.70
2022-12-09T19:59:32.484Z,8.68
2022-12-09T20:01:39.180Z,9.40
2022-12-09T20:03:42.798Z,10.38
2022-12-09T20:05:53.391Z,8.23
2022-12-09T20:07:55.792Z,7.53
2022-12-09T20:09:57.813Z,5.68
2022-12-09T20:11:59.990Z,4.10
2022-12-09T20:14:05.453Z,3.92
2022-12-09T20:16:09.280Z,3.50
2022-12-09T20:18:14.304Z,5.13
2022-12-09T20:20:16.612Z,4.85
2022-12-09T20:22:18.659Z,3.80
2022-12-09T20:24:20.729Z,3.75
2022-12-09T20:26:25.801Z,3.75
2022-12-09T20:28:29.678Z,3.47
2022-12-09T20:30:32.507Z,3.28
2022-12-09T20:32:34.483Z,2.65
2022-12-09T20:34:36.681Z,3.67
2022-12-09T20:36:41.544Z,3.15
2022-12-09T20:38:47.225Z,3.15
2022-12-09T20:40:49.238Z,3.70
2022-12-09T20:42:51.263Z,3.80
2022-12-09T20:44:53.578Z,3.25
2022-12-09T20:46:55.415Z,3.00
2022-12-09T20:48:59.056Z,3.92
2022-12-09T20:51:07.512Z,3.78
2022-12-09T20:53:09.542Z,3.15
2022-12-09T20:55:12.755Z,3.60
2022-12-09T20:57:14.657Z,3.08
2022-12-09T20:59:16.664Z,3.03
2022-12-09T21:01:21.532Z,2.63
2022-12-09T21:03:24.004Z,3.13
2022-12-09T21:05:26.257Z,3.20
2022-12-09T21:07:28.436Z,4.00
2022-12-09T21:09:30.725Z,4.63
2022-12-09T21:11:32.781Z,6.20
2022-12-09T21:13:40.280Z,8.20
2022-12-09T21:15:42.213Z,7.03
2022-12-09T21:17:46.808Z,5.18
2022-12-09T21:19:49.098Z,4.53
2022-12-09T21:21:54.657Z,14.38
2022-12-09T21:23:59.421Z,12.80
2022-12-09T21:26:07.598Z,35.15
2022-12-09T21:28:09.462Z,40.13
2022-12-09T21:30:12.697Z,47.97
2022-12-09T21:32:14.825Z,57.70
2022-12-09T21:34:17.811Z,58.22
2022-12-09T21:36:22.537Z,39.10
2022-12-09T21:38:24.630Z,32.00
2022-12-09T21:40:27.159Z,55.45
2022-12-09T21:42:29.194Z,38.88
2022-12-09T21:44:31.223Z,73.60
2022-12-09T21:46:36.273Z,61.63
2022-12-09T21:48:39.169Z,52.15
2022-12-09T21:50:41.257Z,37.72
2022-12-09T21:52:44.276Z,14.70
2022-12-09T21:54:52.303Z,12.10
2022-12-09T21:56:57.209Z,15.20
2022-12-09T21:59:00.142Z,7.72
2022-12-09T22:01:09.517Z,16.65
2022-12-09T22:03:11.526Z,7.15
2022-12-09T22:05:13.615Z,4.38
2022-12-09T22:07:15.645Z,6.13
2022-12-09T22:09:20.855Z,19.13
2022-12-09T22:11:25.800Z,26.35
2022-12-09T22:13:28.291Z,10.95
2022-12-09T22:15:31.143Z,10.15
2022-12-09T22:17:33.393Z,21.50
2022-12-09T22:19:35.453Z,8.50
2022-12-09T22:21:37.428Z,8.27
2022-12-09T22:23:39.568Z,6.78
2022-12-09T22:25:41.771Z,13.80
2022-12-09T22:27:43.754Z,28.92
2022-12-09T22:29:45.766Z,23.88
2022-12-09T22:31:48.041Z,17.75
2022-12-09T22:33:52.042Z,13.65
2022-12-09T22:35:54.409Z,16.55
2022-12-09T22:37:59.255Z,20.00
2022-12-09T22:40:01.297Z,14.65
2022-12-09T22:42:03.819Z,13.65
2022-12-09T22:44:06.118Z,13.30
2022-12-09T22:46:14.883Z,12.43
2022-12-09T22:48:16.858Z,14.35
2022-12-09T22:50:19.091Z,8.98
2022-12-09T22:52:23.141Z,11.07
2022-12-09T22:54:25.382Z,25.58
2022-12-09T22:56:28.164Z,17.25
2022-12-09T22:58:30.443Z,22.75
2022-12-09T23:00:32.540Z,14.30
2022-12-09T23:02:35.255Z,13.77
2022-12-09T23:04:37.747Z,18.17
2022-12-09T23:06:40.947Z,30.20
2022-12-09T23:08:43.966Z,16.67
2022-12-09T23:10:45.935Z,11.13
2022-12-09T23:12:47.906Z,11.75
2022-12-09T23:14:49.887Z,11.40
2022-12-09T23:16:52.236Z,14.95
2022-12-09T23:18:56.371Z,9.10
2022-12-09T23:21:07.920Z,5.28
2022-12-09T23:23:09.930Z,4.75
2022-12-09T23:25:12.154Z,10.68
2022-12-09T23:27:14.216Z,16.00
2022-12-09T23:29:16.442Z,12.57
2022-12-09T23:31:20.721Z,6.13
2022-12-09T23:33:22.721Z,11.82
2022-12-09T23:35:24.940Z,21.40
2022-12-09T23:37:26.920Z,17.70
2022-12-09T23:39:28.900Z,11.45
2022-12-09T23:41:31.509Z,15.70
2022-12-09T23:43:35.400Z,10.70
2022-12-09T23:45:37.497Z,5.10
2022-12-09T23:47:42.534Z,4.70
2022-12-09T23:49:44.682Z,11.50
2022-12-09T23:51:46.646Z,9.80
2022-12-09T23:53:50.645Z,12.05
2022-12-09T23:55:52.681Z,5.75
2022-12-09T23:57:55.021Z,6.97
2022-12-09T23:59:57.278Z,4.13
